Time;durP1;ratioP1;P1;durP2;ratioP2;P2;SDS_P1;SDS_P2;PMS_P1;PMS_P2;Temp;Humidity;BMP_temperature;BMP_pressure;BME280_temperature;BME280_humidity;BME280_pressure;Samples;Min_cycle;Max_cycle;Signal;HPM_P1;HPM_P2
2024/03/13 00:00:13;;;;;;;1.90;1.52;;;;;;;9.65;76.07;92815.81;522787;28;860;-69
2024/03/13 00:00:31;;;;;;;2.63;1.90;;;;;;;9.62;76.25;92812.13;522741;28;902;-69
2024/03/13 00:00:47;;;;;;;2.90;2.15;;;;;;;9.65;76.33;92815.81;522834;28;718;-69
2024/03/13 00:01:03;;;;;;;3.08;2.30;;;;;;;9.65;76.08;92816.53;522657;28;805;-69
2024/03/13 00:01:18;;;;;;;3.78;2.30;;;;;;;9.67;76.16;92816.72;522819;28;939;-69
2024/03/13 00:01:35;;;;;;;3.50;1.87;;;;;;;9.67;76.28;92813.97;522887;28;819;-69
2024/03/13 00:01:51;;;;;;;2.40;1.52;;;;;;;9.69;76.12;92816.16;522883;28;816;-69
2024/03/13 00:02:08;;;;;;;2.95;2.00;;;;;;;9.68;76.19;92815.41;522828;28;919;-69
2024/03/13 00:02:23;;;;;;;3.42;2.40;;;;;;;9.69;76.06;92807.88;522738;28;835;-70
2024/03/13 00:02:43;;;;;;;2.80;2.30;;;;;;;9.69;76.29;92811.38;522921;28;744;-69
2024/03/13 00:02:58;;;;;;;2.72;2.42;;;;;;;9.69;76.07;92816.88;522863;28;828;-69
2024/03/13 00:03:15;;;;;;;3.67;2.80;;;;;;;9.69;76.07;92813.41;522808;28;882;-69
2024/03/13 00:03:32;;;;;;;4.03;3.13;;;;;;;9.70;76.08;92809.34;522880;28;932;-70
2024/03/13 00:03:47;;;;;;;3.95;3.15;;;;;;;9.71;76.33;92805.28;523195;28;808;-69
2024/03/13 00:04:05;;;;;;;3.85;2.85;;;;;;;9.72;76.20;92817.81;523230;28;816;-69
2024/03/13 00:04:20;;;;;;;3.25;2.55;;;;;;;9.73;76.63;92805.47;523220;28;848;-69
2024/03/13 00:04:43;;;;;;;3.03;2.33;;;;;;;9.73;76.36;92805.47;523226;28;847;-69
2024/03/13 00:04:58;;;;;;;3.35;2.30;;;;;;;9.74;76.43;92810.44;523212;28;882;-69
2024/03/13 00:05:14;;;;;;;3.13;2.08;;;;;;;9.74;76.79;92806.94;523209;28;922;-69
2024/03/13 00:05:29;;;;;;;2.77;1.73;;;;;;;9.75;76.75;92811.16;523200;28;745;-69
2024/03/13 00:05:45;;;;;;;2.55;1.95;;;;;;;9.75;76.49;92809.13;523260;28;777;-69
2024/03/13 00:06:00;;;;;;;2.40;2.10;;;;;;;9.75;76.38;92808.41;523268;28;780;-70
2024/03/13 00:06:16;;;;;;;2.53;2.08;;;;;;;9.76;76.57;92807.13;523093;28;856;-70
2024/03/13 00:06:31;;;;;;;3.77;2.00;;;;;;;9.76;76.55;92810.63;523002;28;863;-69
2024/03/13 00:06:47;;;;;;;3.55;2.05;;;;;;;9.77;76.28;92803.78;523096;28;899;-69
2024/03/13 00:07:02;;;;;;;2.23;2.03;;;;;;;9.78;76.44;92807.28;523101;28;820;-69
2024/03/13 00:07:19;;;;;;;2.38;2.08;;;;;;;9.78;76.41;92810.03;523004;28;812;-69
2024/03/13 00:07:35;;;;;;;2.22;2.00;;;;;;;9.78;76.25;92810.03;523104;28;923;-69
2024/03/13 00:07:50;;;;;;;2.17;1.90;;;;;;;9.78;76.20;92805.28;523133;28;824;-69
2024/03/13 00:08:07;;;;;;;3.15;2.00;;;;;;;9.78;76.39;92804.53;523269;28;876;-69
2024/03/13 00:08:23;;;;;;;2.92;2.03;;;;;;;9.73;76.08;92810.97;523168;28;872;-69
2024/03/13 00:08:39;;;;;;;2.00;1.80;;;;;;;9.74;75.99;92815.97;523303;28;787;-69
2024/03/13 00:08:55;;;;;;;1.85;1.70;;;;;;;9.73;76.00;92820.00;523242;28;898;-69
2024/03/13 00:09:10;;;;;;;2.30;1.90;;;;;;;9.68;76.02;92815.41;523111;28;907;-69
2024/03/13 00:09:26;;;;;;;3.50;2.28;;;;;;;9.65;76.30;92807.53;523189;28;785;-69
2024/03/13 00:09:50;;;;;;;4.03;2.30;;;;;;;9.44;76.38;92785.03;523286;28;804;-69
2024/03/13 00:10:07;;;;;;;2.92;2.17;;;;;;;9.64;76.42;92812.31;523201;28;1914;-69
2024/03/13 00:10:24;;;;;;;3.67;2.50;;;;;;;9.40;76.52;92777.13;523186;28;921;-70
2024/03/13 00:10:39;;;;;;;2.80;2.40;;;;;;;9.68;76.63;92814.69;523042;28;899;-69
2024/03/13 00:10:55;;;;;;;2.40;2.00;;;;;;;9.68;76.32;92812.66;523162;28;824;-69
2024/03/13 00:11:10;;;;;;;3.17;2.43;;;;;;;9.71;76.49;92808.06;523156;28;890;-69
2024/03/13 00:11:27;;;;;;;3.13;2.55;;;;;;;9.71;76.45;92805.28;523117;28;808;-69
2024/03/13 00:11:43;;;;;;;2.92;2.60;;;;;;;9.72;76.51;92804.03;523112;28;985;-70
2024/03/13 00:11:58;;;;;;;3.17;2.65;;;;;;;9.65;76.64;92799.25;523022;28;976;-69
2024/03/13 00:12:14;;;;;;;3.40;2.60;;;;;;;9.71;76.62;92808.78;523091;28;791;-69
2024/03/13 00:12:30;;;;;;;3.28;2.55;;;;;;;9.76;76.54;92802.34;523081;28;872;-69
2024/03/13 00:12:46;;;;;;;2.80;2.50;;;;;;;9.77;76.32;92809.31;523154;28;906;-70
2024/03/13 00:13:01;;;;;;;2.70;2.50;;;;;;;9.77;76.71;92805.81;523018;28;836;-70
2024/03/13 00:13:17;;;;;;;3.40;2.37;;;;;;;9.75;76.72;92800.88;523082;28;765;-70
2024/03/13 00:13:32;;;;;;;3.78;2.25;;;;;;;9.75;76.54;92811.16;523099;28;828;-69
2024/03/13 00:13:48;;;;;;;2.47;2.00;;;;;;;9.77;76.56;92808.56;523270;28;789;-70
2024/03/13 00:14:03;;;;;;;2.00;1.80;;;;;;;9.77;76.14;92800.31;523241;28;745;-69
2024/03/13 00:14:19;;;;;;;2.30;1.90;;;;;;;9.77;76.28;92803.06;523227;28;926;-69
2024/03/13 00:14:34;;;;;;;2.13;1.90;;;;;;;9.76;76.13;92807.13;523224;28;836;-70
2024/03/13 00:14:51;;;;;;;1.93;1.77;;;;;;;9.75;76.27;92800.13;523231;28;773;-70
2024/03/13 00:15:07;;;;;;;2.25;1.90;;;;;;;9.72;76.43;92804.72;523254;28;808;-69
2024/03/13 00:15:22;;;;;;;2.47;2.15;;;;;;;9.70;76.11;92803.84;523218;28;930;-70
2024/03/13 00:15:38;;;;;;;2.70;2.40;;;;;;;9.66;76.35;92804.22;523228;28;817;-69
2024/03/13 00:15:54;;;;;;;3.58;2.30;;;;;;;9.63;76.46;92812.88;523131;28;828;-69
2024/03/13 00:16:09;;;;;;;3.10;1.92;;;;;;;9.61;76.56;92805.16;523186;28;856;-70
2024/03/13 00:16:25;;;;;;;2.00;1.80;;;;;;;9.60;76.95;92803.69;523214;28;1147;-70
2024/03/13 00:16:41;;;;;;;3.17;1.98;;;;;;;9.60;76.95;92809.22;523253;28;863;-69
2024/03/13 00:16:56;;;;;;;3.28;2.15;;;;;;;9.62;76.76;92803.13;523246;28;784;-70
2024/03/13 00:17:11;;;;;;;2.77;2.27;;;;;;;9.61;76.80;92807.19;523171;28;1156;-69
2024/03/13 00:17:27;;;;;;;2.37;2.17;;;;;;;9.58;76.94;92800.75;523038;28;772;-70
2024/03/13 00:17:44;;;;;;;2.30;2.10;;;;;;;9.57;76.81;92804.09;522939;28;832;-70
2024/03/13 00:18:03;;;;;;;2.83;2.13;;;;;;;9.57;77.05;92813.06;522922;28;832;-69
2024/03/13 00:18:20;;;;;;;2.88;2.00;;;;;;;9.58;76.87;92806.28;522913;28;868;-69
2024/03/13 00:18:37;;;;;;;2.53;2.10;;;;;;;9.60;76.91;92811.22;522912;28;816;-69
2024/03/13 00:18:52;;;;;;;2.20;2.00;;;;;;;9.38;77.08;92767.97;522845;28;1069;-70
2024/03/13 00:19:09;;;;;;;1.73;1.63;;;;;;;9.63;76.66;92804.59;522920;28;887;-69
2024/03/13 00:19:24;;;;;;;1.98;1.77;;;;;;;9.64;76.73;92806.06;522911;28;816;-69
2024/03/13 00:19:39;;;;;;;1.97;1.70;;;;;;;9.65;76.20;92797.25;523024;28;1112;-70
2024/03/13 00:19:55;;;;;;;1.87;1.40;;;;;;;9.67;76.25;92799.44;523111;28;760;-69
2024/03/13 00:20:12;;;;;;;1.58;1.30;;;;;;;9.66;75.93;92801.47;523055;28;773;-70
2024/03/13 00:20:30;;;;;;;1.60;1.40;;;;;;;9.50;76.07;92774.53;523078;28;1308;-70
2024/03/13 00:20:46;;;;;;;1.50;1.40;;;;;;;9.69;75.88;92805.13;523094;28;824;-69
2024/03/13 00:21:02;;;;;;;1.50;1.40;;;;;;;9.69;75.89;92796.84;523061;28;927;-69
2024/03/13 00:21:17;;;;;;;1.50;1.40;;;;;;;9.70;75.87;92809.34;523040;28;848;-69
2024/03/13 00:21:35;;;;;;;1.57;1.47;;;;;;;9.69;75.65;92802.38;523070;28;749;-70
2024/03/13 00:21:51;;;;;;;2.03;1.65;;;;;;;9.65;76.19;92799.25;523099;28;811;-69
2024/03/13 00:22:06;;;;;;;1.88;1.75;;;;;;;9.61;76.11;92794.16;523128;28;875;-70
2024/03/13 00:22:23;;;;;;;2.03;1.83;;;;;;;9.60;76.56;92809.22;522983;28;867;-70
2024/03/13 00:22:40;;;;;;;2.75;2.00;;;;;;;9.58;76.41;92809.03;523204;28;859;-69
2024/03/13 00:22:58;;;;;;;2.58;1.67;;;;;;;9.54;76.90;92807.94;523230;28;899;-69
2024/03/13 00:23:15;;;;;;;1.80;1.50;;;;;;;9.51;77.07;92803.53;523213;28;953;-70
2024/03/13 00:23:31;;;;;;;5.72;2.10;;;;;;;9.49;76.97;92804.09;523185;28;941;-69
2024/03/13 00:23:46;;;;;;;7.75;2.63;;;;;;;9.47;77.35;92800.44;523213;28;773;-69
2024/03/13 00:24:02;;;;;;;6.75;2.70;;;;;;;9.44;77.55;92805.03;523218;28;828;-70
2024/03/13 00:24:18;;;;;;;4.68;2.35;;;;;;;9.40;77.64;92806.72;523223;28;812;-69
2024/03/13 00:24:34;;;;;;;2.73;2.23;;;;;;;9.38;77.73;92796.25;523128;28;840;-69
2024/03/13 00:24:53;;;;;;;2.40;2.10;;;;;;;9.37;77.83;92805.06;523238;28;824;-69
2024/03/13 00:25:11;;;;;;;3.28;1.90;;;;;;;9.37;78.01;92799.56;523232;28;975;-70
2024/03/13 00:25:27;;;;;;;3.05;2.00;;;;;;;9.39;78.10;92808.00;523177;28;808;-69
2024/03/13 00:25:43;;;;;;;2.05;1.85;;;;;;;9.41;78.09;92810.94;523155;28;902;-70
2024/03/13 00:25:59;;;;;;;3.17;1.87;;;;;;;9.42;78.24;92802.09;523203;28;831;-69
2024/03/13 00:26:16;;;;;;;3.22;1.80;;;;;;;9.44;78.22;92804.31;523107;28;840;-70
2024/03/13 00:26:33;;;;;;;2.38;1.80;;;;;;;9.42;78.07;92802.09;523089;28;903;-70
2024/03/13 00:26:50;;;;;;;2.50;1.98;;;;;;;9.41;77.75;92805.44;523067;28;823;-70
2024/03/13 00:27:06;;;;;;;2.33;2.13;;;;;;;9.39;77.77;92796.97;523094;28;887;-69
2024/03/13 00:27:21;;;;;;;2.10;1.90;;;;;;;9.36;78.05;92798.09;523007;28;823;-69
2024/03/13 00:27:37;;;;;;;1.77;1.67;;;;;;;9.36;78.11;92798.09;523083;28;761;-70
2024/03/13 00:27:53;;;;;;;1.98;1.83;;;;;;;9.34;77.80;92801.41;523086;28;820;-70
2024/03/13 00:28:08;;;;;;;2.50;2.10;;;;;;;9.35;77.83;92802.16;523098;28;885;-70
2024/03/13 00:28:24;;;;;;;2.63;2.08;;;;;;;9.33;78.02;92805.47;523030;28;753;-69
2024/03/13 00:28:39;;;;;;;1.90;1.70;;;;;;;9.33;78.36;92799.97;523076;28;831;-70
2024/03/13 00:28:55;;;;;;;1.77;1.63;;;;;;;9.31;78.27;92799.78;523088;28;780;-69
2024/03/13 00:29:10;;;;;;;2.15;1.88;;;;;;;9.31;78.46;92799.78;523129;28;832;-70
2024/03/13 00:29:26;;;;;;;2.08;1.88;;;;;;;9.31;78.17;92801.81;523079;28;955;-69
2024/03/13 00:29:44;;;;;;;2.17;1.90;;;;;;;9.31;78.48;92802.53;523112;28;764;-69
2024/03/13 00:30:00;;;;;;;2.70;2.00;;;;;;;9.33;78.27;92799.22;523110;28;877;-69
2024/03/13 00:30:18;;;;;;;2.30;2.10;;;;;;;9.34;78.49;92795.16;523006;28;1988;-70
2024/03/13 00:30:34;;;;;;;2.03;1.92;;;;;;;9.26;78.32;92783.44;523296;28;836;-70
2024/03/13 00:30:49;;;;;;;2.00;1.80;;;;;;;9.38;78.23;92795.50;523217;28;781;-70
2024/03/13 00:31:08;;;;;;;2.08;1.88;;;;;;;9.38;78.51;92801.00;523173;28;899;-70
2024/03/13 00:31:24;;;;;;;2.30;2.10;;;;;;;9.39;78.31;92800.47;522985;28;804;-69
2024/03/13 00:31:39;;;;;;;2.28;2.08;;;;;;;9.38;78.46;92801.00;523195;28;793;-70
2024/03/13 00:31:54;;;;;;;2.10;1.80;;;;;;;9.34;78.17;92798.66;523227;28;796;-69
2024/03/13 00:32:12;;;;;;;2.08;1.90;;;;;;;9.33;78.30;92797.19;523206;28;848;-69
2024/03/13 00:32:28;;;;;;;2.40;2.10;;;;;;;9.32;78.35;92792.97;523158;28;855;-69
2024/03/13 00:32:44;;;;;;;2.20;2.00;;;;;;;9.25;78.17;92790.25;523122;28;848;-69
2024/03/13 00:32:59;;;;;;;2.60;2.20;;;;;;;9.23;78.58;92796.31;523194;28;918;-69
2024/03/13 00:33:15;;;;;;;2.92;2.28;;;;;;;9.20;78.79;92800.19;523165;28;851;-70
2024/03/13 00:33:30;;;;;;;2.30;2.10;;;;;;;9.18;78.86;92794.50;523271;28;780;-69
2024/03/13 00:33:46;;;;;;;2.30;2.10;;;;;;;9.17;78.98;92790.25;523249;28;990;-70
2024/03/13 00:34:01;;;;;;;2.38;2.17;;;;;;;9.18;79.13;92797.97;523094;28;875;-70
2024/03/13 00:34:18;;;;;;;2.30;2.10;;;;;;;9.16;79.24;92797.03;523004;28;875;-70
2024/03/13 00:34:36;;;;;;;2.30;2.10;;;;;;;9.11;79.08;92795.97;523066;28;895;-70
2024/03/13 00:34:52;;;;;;;2.47;2.28;;;;;;;9.01;79.44;92795.06;523060;28;876;-70
2024/03/13 00:35:08;;;;;;;2.30;2.10;;;;;;;8.80;79.81;92774.56;523153;28;760;-70
2024/03/13 00:35:24;;;;;;;2.22;2.00;;;;;;;8.89;80.04;92796.75;523042;28;931;-70
2024/03/13 00:35:39;;;;;;;2.25;1.90;;;;;;;8.87;80.33;92796.59;522960;28;820;-70
2024/03/13 00:35:55;;;;;;;3.00;1.77;;;;;;;8.88;80.49;92798.03;523029;28;832;-70
2024/03/13 00:36:11;;;;;;;2.83;1.80;;;;;;;8.90;80.56;92797.50;523101;28;847;-69
2024/03/13 00:36:26;;;;;;;2.33;1.90;;;;;;;8.92;80.64;92795.63;523024;28;824;-70
2024/03/13 00:36:41;;;;;;;2.37;1.90;;;;;;;8.96;80.56;92792.53;523116;28;803;-69
2024/03/13 00:36:57;;;;;;;2.15;1.95;;;;;;;8.99;80.37;92791.41;522969;28;871;-70
2024/03/13 00:37:14;;;;;;;2.20;2.00;;;;;;;9.01;80.49;92789.56;523052;28;768;-69
2024/03/13 00:37:29;;;;;;;2.10;1.90;;;;;;;9.04;80.54;92785.72;523081;28;895;-70
2024/03/13 00:37:45;;;;;;;2.20;2.00;;;;;;;9.07;80.14;92798.34;523066;28;765;-70
2024/03/13 00:38:01;;;;;;;2.63;2.42;;;;;;;9.11;80.41;92803.50;523152;28;800;-70
2024/03/13 00:38:16;;;;;;;3.33;2.67;;;;;;;9.12;80.01;92791.19;523132;28;792;-69
2024/03/13 00:38:33;;;;;;;3.37;2.73;;;;;;;9.13;79.76;92793.41;523214;28;895;-70
2024/03/13 00:38:48;;;;;;;3.03;2.70;;;;;;;9.15;79.75;92798.34;523257;28;890;-70
2024/03/13 00:39:05;;;;;;;2.63;2.40;;;;;;;9.18;79.42;92796.50;523197;28;899;-70
2024/03/13 00:39:22;;;;;;;2.33;2.13;;;;;;;9.18;79.36;92791.75;523156;28;922;-70
2024/03/13 00:39:37;;;;;;;2.70;2.50;;;;;;;9.20;79.39;92802.19;522984;28;861;-69
2024/03/13 00:39:52;;;;;;;2.60;2.40;;;;;;;9.21;79.22;92800.88;523033;28;808;-69
2024/03/13 00:40:09;;;;;;;2.50;2.30;;;;;;;9.20;79.17;92797.44;523037;28;844;-69
2024/03/13 00:40:24;;;;;;;2.53;2.22;;;;;;;9.21;79.09;92792.63;522921;28;820;-69
2024/03/13 00:40:44;;;;;;;2.27;2.00;;;;;;;9.22;79.22;92794.84;523056;28;868;-70
2024/03/13 00:41:00;;;;;;;1.67;1.58;;;;;;;9.23;78.76;92798.31;522965;28;797;-70
2024/03/13 00:41:16;;;;;;;1.75;1.63;;;;;;;9.23;78.96;92796.31;523061;28;793;-70
2024/03/13 00:41:31;;;;;;;2.10;1.80;;;;;;;9.23;78.67;92790.78;523032;28;986;-69
2024/03/13 00:41:47;;;;;;;1.92;1.70;;;;;;;9.26;78.59;92794.47;523233;28;1091;-69
2024/03/13 00:42:03;;;;;;;2.90;1.80;;;;;;;9.27;78.62;92793.19;523219;28;832;-70
2024/03/13 00:42:19;;;;;;;2.80;1.83;;;;;;;9.25;78.75;92790.97;523084;28;1043;-69
2024/03/13 00:42:34;;;;;;;1.75;1.60;;;;;;;9.26;78.65;92794.47;523218;28;819;-69
2024/03/13 00:42:50;;;;;;;2.17;1.97;;;;;;;9.26;78.45;92784.19;523245;28;831;-69
2024/03/13 00:43:05;;;;;;;2.20;2.00;;;;;;;9.26;78.66;92791.69;523245;28;851;-70
2024/03/13 00:43:21;;;;;;;1.90;1.80;;;;;;;9.25;78.57;92798.50;523199;28;777;-69
2024/03/13 00:43:36;;;;;;;1.90;1.80;;;;;;;9.27;78.53;92790.44;523223;28;796;-69
2024/03/13 00:43:53;;;;;;;1.87;1.70;;;;;;;9.27;78.70;92791.13;523138;28;848;-69
2024/03/13 00:44:09;;;;;;;1.85;1.60;;;;;;;9.27;78.60;92791.13;523244;28;796;-70
2024/03/13 00:44:25;;;;;;;1.83;1.45;;;;;;;9.27;78.81;92790.44;523133;28;847;-69
2024/03/13 00:44:41;;;;;;;1.90;1.50;;;;;;;9.29;78.78;92796.13;523038;28;1184;-70
2024/03/13 00:44:57;;;;;;;1.73;1.60;;;;;;;9.30;78.58;92794.81;523037;28;871;-69
2024/03/13 00:45:13;;;;;;;1.70;1.40;;;;;;;9.23;78.63;92788.03;523063;28;848;-70
2024/03/13 00:45:28;;;;;;;1.65;1.55;;;;;;;9.23;78.46;92790.06;523022;28;773;-70
2024/03/13 00:45:44;;;;;;;1.80;1.70;;;;;;;9.22;78.57;92800.34;523005;28;871;-69
2024/03/13 00:45:59;;;;;;;3.30;1.70;;;;;;;9.23;78.62;92790.06;522979;28;801;-69
2024/03/13 00:46:15;;;;;;;2.95;1.50;;;;;;;9.25;78.45;92795.75;523069;28;852;-70
2024/03/13 00:46:30;;;;;;;1.47;1.37;;;;;;;9.25;78.89;92793.00;522963;28;836;-70
2024/03/13 00:46:46;;;;;;;1.65;1.55;;;;;;;9.27;78.67;92791.13;523033;28;760;-70
2024/03/13 00:47:03;;;;;;;1.67;1.50;;;;;;;9.30;78.52;92789.31;522984;28;840;-69
2024/03/13 00:47:21;;;;;;;1.35;1.25;;;;;;;9.30;78.65;92790.03;523042;28;816;-69
2024/03/13 00:47:37;;;;;;;1.52;1.42;;;;;;;9.32;78.66;92792.22;522929;28;1371;-69
2024/03/13 00:47:54;;;;;;;1.52;1.42;;;;;;;9.33;78.56;92790.94;522957;28;1414;-69
2024/03/13 00:48:11;;;;;;;1.58;1.42;;;;;;;9.32;78.67;92790.22;523172;28;792;-69
2024/03/13 00:48:31;;;;;;;2.17;1.67;;;;;;;9.35;78.55;92791.88;523081;28;848;-69
2024/03/13 00:48:46;;;;;;;1.83;1.52;;;;;;;9.37;78.58;92788.53;523138;28;886;-69
2024/03/13 00:49:02;;;;;;;1.70;1.60;;;;;;;9.38;78.21;92790.00;523224;28;804;-69
2024/03/13 00:49:17;;;;;;;1.77;1.67;;;;;;;9.36;78.28;92787.06;523095;28;765;-69
2024/03/13 00:49:33;;;;;;;2.00;1.90;;;;;;;9.36;78.21;92789.81;523185;28;781;-69
2024/03/13 00:49:53;;;;;;;2.20;1.98;;;;;;;9.34;78.19;92793.16;523229;28;827;-70
2024/03/13 00:50:09;;;;;;;2.17;1.88;;;;;;;9.35;78.42;92791.13;523090;28;1973;-69
2024/03/13 00:50:24;;;;;;;1.90;1.75;;;;;;;9.35;78.33;92788.38;523138;28;815;-69
2024/03/13 00:50:40;;;;;;;1.80;1.70;;;;;;;9.36;78.34;92785.06;523119;28;852;-69
2024/03/13 00:50:55;;;;;;;1.73;1.63;;;;;;;9.35;78.71;92794.63;523173;28;784;-69
2024/03/13 00:51:10;;;;;;;1.63;1.52;;;;;;;9.35;78.85;92783.59;523189;28;753;-69
2024/03/13 00:51:26;;;;;;;2.17;1.70;;;;;;;9.33;78.57;92785.44;523121;28;855;-69
2024/03/13 00:51:44;;;;;;;2.30;1.80;;;;;;;9.33;78.81;92788.94;523243;28;785;-69
2024/03/13 00:51:59;;;;;;;1.80;1.70;;;;;;;9.31;78.76;92790.78;523238;28;843;-70
2024/03/13 00:52:15;;;;;;;2.03;1.80;;;;;;;9.27;79.17;92790.44;523010;28;836;-70
2024/03/13 00:52:30;;;;;;;2.22;1.88;;;;;;;9.27;79.13;92788.38;523142;28;819;-70
2024/03/13 00:52:47;;;;;;;1.90;1.70;;;;;;;9.28;79.09;92786.38;523267;28;749;-70
2024/03/13 00:53:02;;;;;;;1.60;1.50;;;;;;;9.28;79.24;92787.09;523148;28;851;-69
2024/03/13 00:53:18;;;;;;;1.60;1.50;;;;;;;9.31;79.09;92788.75;523175;28;780;-70
2024/03/13 00:53:33;;;;;;;1.67;1.53;;;;;;;9.33;78.85;92783.44;523073;28;859;-69
2024/03/13 00:53:49;;;;;;;2.00;1.60;;;;;;;9.35;79.18;92778.09;523167;28;957;-70
2024/03/13 00:54:04;;;;;;;1.73;1.50;;;;;;;9.36;79.08;92782.28;523170;28;812;-71
2024/03/13 00:54:21;;;;;;;1.58;1.48;;;;;;;9.38;78.78;92784.50;523196;28;776;-70
2024/03/13 00:54:36;;;;;;;1.75;1.60;;;;;;;9.39;78.88;92781.19;523194;28;887;-70
2024/03/13 00:54:52;;;;;;;1.85;1.45;;;;;;;9.41;78.63;92783.38;523123;28;1052;-70
2024/03/13 00:55:11;;;;;;;1.40;1.30;;;;;;;9.43;78.64;92789.06;523159;28;788;-70
2024/03/13 00:55:27;;;;;;;1.60;1.50;;;;;;;9.45;78.54;92780.97;523182;28;836;-70
2024/03/13 00:55:42;;;;;;;1.90;1.55;;;;;;;9.43;78.11;92787.06;523169;28;875;-70
2024/03/13 00:55:58;;;;;;;2.00;1.67;;;;;;;9.45;78.16;92784.47;523078;28;1530;-69
2024/03/13 00:56:15;;;;;;;1.80;1.70;;;;;;;9.45;77.90;92781.72;523153;28;748;-70
2024/03/13 00:56:32;;;;;;;1.77;1.67;;;;;;;9.46;77.83;92782.44;523195;28;876;-70
2024/03/13 00:56:48;;;;;;;1.60;1.50;;;;;;;9.47;77.72;92786.66;523125;28;863;-70
2024/03/13 00:57:03;;;;;;;1.58;1.48;;;;;;;9.48;77.95;92785.38;523136;28;870;-69
2024/03/13 00:57:19;;;;;;;1.52;1.40;;;;;;;9.48;77.95;92788.13;523014;28;773;-70
2024/03/13 00:57:35;;;;;;;1.60;1.40;;;;;;;9.49;77.83;92789.59;523009;28;804;-70
2024/03/13 00:57:50;;;;;;;1.52;1.42;;;;;;;9.50;77.63;92791.06;523011;28;796;-70
2024/03/13 00:58:09;;;;;;;1.70;1.60;;;;;;;9.46;77.55;92779.69;523090;28;990;-70
2024/03/13 00:58:26;;;;;;;1.55;1.45;;;;;;;9.51;77.56;92789.75;522974;28;815;-70
2024/03/13 00:58:42;;;;;;;2.15;1.67;;;;;;;9.52;77.70;92786.47;523014;28;820;-70
2024/03/13 00:58:57;;;;;;;2.35;1.45;;;;;;;9.52;77.33;92789.22;522993;28;757;-70
2024/03/13 00:59:16;;;;;;;1.63;1.30;;;;;;;9.53;77.31;92784.44;522998;28;823;-70
2024/03/13 00:59:32;;;;;;;1.65;1.55;;;;;;;9.53;77.28;92787.22;522990;28;883;-70
2024/03/13 00:59:47;;;;;;;1.40;1.30;;;;;;;9.54;77.33;92783.16;523041;28;757;-69
2024/03/13 01:00:04;;;;;;;1.40;1.30;;;;;;;9.53;77.53;92787.91;523001;28;773;-70
2024/03/13 01:00:22;;;;;;;1.75;1.25;;;;;;;9.53;77.12;92789.97;523083;28;868;-69
2024/03/13 01:00:38;;;;;;;1.38;1.20;;;;;;;9.52;77.25;92780.97;522978;28;828;-69
2024/03/13 01:00:54;;;;;;;1.50;1.33;;;;;;;9.49;77.24;92784.81;522957;28;1091;-69
2024/03/13 01:01:11;;;;;;;1.92;1.30;;;;;;;9.49;77.58;92778.56;523015;28;804;-70
2024/03/13 01:01:26;;;;;;;1.77;1.30;;;;;;;9.50;77.26;92791.06;523139;28;892;-69
2024/03/13 01:01:44;;;;;;;1.50;1.33;;;;;;;9.49;77.28;92784.06;523140;28;832;-69
2024/03/13 01:02:01;;;;;;;1.50;1.40;;;;;;;9.50;77.40;92775.28;523133;28;828;-69
2024/03/13 01:02:16;;;;;;;1.60;1.40;;;;;;;9.50;77.53;92786.28;523177;28;851;-70
2024/03/13 01:02:33;;;;;;;1.73;1.43;;;;;;;9.52;77.44;92791.97;523134;28;844;-69
2024/03/13 01:02:49;;;;;;;2.70;1.67;;;;;;;9.52;77.23;92780.22;523218;28;828;-69
2024/03/13 01:03:04;;;;;;;2.55;1.50;;;;;;;9.44;77.33;92785.75;523117;28;772;-69
2024/03/13 01:03:22;;;;;;;1.47;1.37;;;;;;;9.38;77.73;92782.47;523036;28;789;-69
2024/03/13 01:03:38;;;;;;;1.60;1.50;;;;;;;9.34;77.79;92784.88;523189;28;1087;-69
2024/03/13 01:04:00;;;;;;;1.70;1.60;;;;;;;9.32;78.17;92789.47;523150;28;907;-69
2024/03/13 01:04:16;;;;;;;1.83;1.48;;;;;;;9.33;78.10;92785.44;523133;28;848;-69
2024/03/13 01:04:33;;;;;;;1.55;1.45;;;;;;;9.26;78.37;92786.19;523179;28;765;-69
2024/03/13 01:04:48;;;;;;;2.55;1.58;;;;;;;9.18;78.38;92782.75;523157;28;836;-70
2024/03/13 01:05:05;;;;;;;5.23;1.90;;;;;;;9.14;79.08;92783.84;523032;28;781;-69
2024/03/13 01:05:21;;;;;;;4.03;2.05;;;;;;;9.12;79.10;92783.66;523001;28;788;-69
2024/03/13 01:05:36;;;;;;;1.95;1.80;;;;;;;9.14;78.97;92780.34;522972;28;745;-69
2024/03/13 01:05:55;;;;;;;2.10;1.90;;;;;;;9.15;79.04;92787.34;523047;28;745;-70
2024/03/13 01:06:11;;;;;;;2.10;1.90;;;;;;;9.16;79.04;92783.28;522973;28;852;-69
2024/03/13 01:06:31;;;;;;;2.10;1.90;;;;;;;9.17;79.05;92779.25;522948;28;773;-69
2024/03/13 01:06:46;;;;;;;2.05;1.85;;;;;;;9.19;79.37;92776.66;522974;28;870;-70
2024/03/13 01:07:02;;;;;;;2.35;1.95;;;;;;;9.22;79.02;92780.34;523045;28;805;-69
2024/03/13 01:07:18;;;;;;;2.33;1.92;;;;;;;9.23;79.04;92784.53;522921;28;820;-69
2024/03/13 01:07:34;;;;;;;2.00;1.80;;;;;;;9.24;79.04;92784.00;522968;28;764;-69
2024/03/13 01:07:50;;;;;;;2.25;2.08;;;;;;;9.27;78.70;92790.44;523039;28;920;-70
2024/03/13 01:08:05;;;;;;;2.40;2.20;;;;;;;9.25;78.63;92782.69;523124;28;732;-69
2024/03/13 01:08:22;;;;;;;2.33;2.07;;;;;;;9.22;78.61;92781.06;523123;28;872;-70
2024/03/13 01:08:38;;;;;;;2.20;1.90;;;;;;;9.18;78.78;92775.94;523187;28;923;-69
2024/03/13 01:08:54;;;;;;;2.30;2.00;;;;;;;9.16;78.63;92781.25;523093;28;780;-69
2024/03/13 01:09:09;;;;;;;2.20;2.00;;;;;;;9.15;78.79;92779.06;523093;28;911;-69
2024/03/13 01:09:25;;;;;;;1.90;1.80;;;;;;;9.14;78.84;92778.34;523084;28;902;-70
2024/03/13 01:09:42;;;;;;;1.92;1.83;;;;;;;9.15;78.89;92781.81;523189;28;1061;-70
2024/03/13 01:09:58;;;;;;;2.70;1.93;;;;;;;9.16;79.00;92777.78;523082;28;916;-69
2024/03/13 01:10:13;;;;;;;2.67;2.00;;;;;;;9.16;79.03;92780.53;523071;28;1968;-69
2024/03/13 01:10:29;;;;;;;2.33;2.13;;;;;;;9.13;79.33;92782.38;523129;28;816;-69
2024/03/13 01:10:44;;;;;;;2.57;2.37;;;;;;;9.13;79.15;92785.16;523136;28;746;-69
2024/03/13 01:11:00;;;;;;;3.03;2.63;;;;;;;9.13;79.45;92779.63;523151;28;749;-69
2024/03/13 01:11:16;;;;;;;3.45;2.47;;;;;;;9.14;79.38;92783.09;523081;28;930;-69
2024/03/13 01:11:31;;;;;;;2.70;2.27;;;;;;;9.11;79.62;92781.47;522993;28;812;-69
2024/03/13 01:11:47;;;;;;;2.33;2.13;;;;;;;9.00;79.88;92776.38;523036;28;769;-69
2024/03/13 01:12:05;;;;;;;2.30;2.10;;;;;;;8.89;80.27;92788.50;522963;28;914;-70
2024/03/13 01:12:21;;;;;;;1.95;1.75;;;;;;;8.84;80.68;92780.44;522921;28;844;-69
2024/03/13 01:12:38;;;;;;;1.60;1.50;;;;;;;8.82;80.81;92781.00;523000;28;827;-70
2024/03/13 01:12:54;;;;;;;1.60;1.50;;;;;;;8.85;80.93;92785.41;522970;28;863;-70
2024/03/13 01:13:10;;;;;;;1.85;1.65;;;;;;;8.90;80.85;92792.00;523029;28;871;-69
2024/03/13 01:13:27;;;;;;;1.70;1.60;;;;;;;8.90;81.18;92786.50;522851;28;862;-69
2024/03/13 01:13:42;;;;;;;1.60;1.40;;;;;;;8.92;80.89;92776.38;523015;28;808;-70
2024/03/13 01:13:57;;;;;;;2.38;1.67;;;;;;;8.95;81.02;92780.78;522980;28;978;-69
2024/03/13 01:14:13;;;;;;;2.03;1.70;;;;;;;8.95;80.66;92778.03;522905;28;1005;-70
2024/03/13 01:14:29;;;;;;;2.05;1.42;;;;;;;8.97;80.46;92782.97;522900;28;852;-69
2024/03/13 01:14:45;;;;;;;2.50;1.40;;;;;;;8.98;80.55;92785.19;522963;28;844;-69
2024/03/13 01:15:00;;;;;;;1.98;1.50;;;;;;;9.01;80.62;92775.06;523008;28;907;-70
2024/03/13 01:15:17;;;;;;;1.52;1.40;;;;;;;9.01;80.19;92781.31;522734;28;863;-70
2024/03/13 01:15:32;;;;;;;1.40;1.30;;;;;;;9.06;80.39;92788.66;522865;28;851;-70
2024/03/13 01:15:47;;;;;;;2.25;1.42;;;;;;;9.08;79.92;92780.56;523047;28;796;-69
2024/03/13 01:16:07;;;;;;;2.20;1.40;;;;;;;9.09;79.79;92778.53;523080;28;760;-69
2024/03/13 01:16:23;;;;;;;1.50;1.40;;;;;;;9.10;79.52;92782.75;523034;28;917;-70
2024/03/13 01:16:38;;;;;;;1.35;1.20;;;;;;;9.10;79.59;92777.25;523118;28;919;-69
2024/03/13 01:16:55;;;;;;;1.30;1.20;;;;;;;9.11;79.45;92782.22;523067;28;859;-69
2024/03/13 01:17:11;;;;;;;1.38;1.27;;;;;;;9.09;79.46;92781.31;523034;28;1096;-69
2024/03/13 01:17:26;;;;;;;1.30;1.20;;;;;;;9.09;79.19;92776.53;523100;28;819;-70
2024/03/13 01:17:42;;;;;;;1.20;1.10;;;;;;;9.09;79.22;92775.78;523130;28;784;-70
2024/03/13 01:17:57;;;;;;;1.10;1.00;;;;;;;9.10;78.93;92777.97;523153;28;843;-69
2024/03/13 01:18:13;;;;;;;1.10;1.00;;;;;;;9.12;78.81;92774.66;522994;28;887;-70
2024/03/13 01:18:30;;;;;;;1.17;1.08;;;;;;;9.12;78.70;92778.16;523575;28;840;-70
2024/03/13 01:18:45;;;;;;;1.40;1.20;;;;;;;9.13;78.70;92781.66;523054;28;799;-70
2024/03/13 01:19:02;;;;;;;1.40;1.20;;;;;;;9.11;78.76;92773.97;522992;28;859;-69
2024/03/13 01:19:21;;;;;;;1.30;1.20;;;;;;;9.10;78.92;92780.75;522872;28;942;-70
2024/03/13 01:19:37;;;;;;;1.13;1.13;;;;;;;9.11;78.66;92775.97;522812;28;887;-70
2024/03/13 01:19:53;;;;;;;1.00;1.00;;;;;;;9.08;78.88;92775.06;522741;28;924;-69
2024/03/13 01:20:09;;;;;;;1.10;1.10;;;;;;;9.04;78.90;92780.22;522839;28;793;-69